Alva, Florida
Current Conditions -  °F | °C
As of 8:53 AM on Friday 31 Oct 2014 (Local Time) from KRSW Reporting Station
Broken Clouds Broken Clouds  
Wind Chill: 71°   Ceiling: 4700
Heat Index: 71°   Visibility: 9mi
Dew Point: 69°   Wind: 3mph
Humidity: 93%   Direction: 10°N
Pressure: 29.88"   Gusts: NA
Location:  26.72°N, 81.61°W
Report Text: KRSW 311253Z 01003KT 9SM SCT027 BKN047 22/21 A2988 RMK AO2 SLP115 T02170206
Loading
Personal Weather Stations






























Interactive Weather Map
Tropical Storm Tracking
New forecast layout! Learn more

10-Day Weather Forecast

Advertisements
Track Severe Weather on mobile